createdAt,value
2019-03-28T00:03:32.426Z,7.40
2019-03-28T00:08:26.723Z,6.60
2019-03-28T00:13:21.447Z,6.50
2019-03-28T00:18:15.634Z,6.57
2019-03-28T00:23:24.019Z,7.63
2019-03-28T00:28:17.986Z,6.93
2019-03-28T00:33:11.938Z,7.40
2019-03-28T00:38:05.899Z,7.67
2019-03-28T00:43:00.366Z,7.40
2019-03-28T00:47:54.023Z,7.07
2019-03-28T00:52:47.997Z,8.37
2019-03-28T00:57:41.945Z,8.37
2019-03-28T01:02:36.224Z,7.57
2019-03-28T01:07:30.179Z,7.50
2019-03-28T01:12:24.137Z,8.00
2019-03-28T01:17:18.099Z,7.70
2019-03-28T01:22:12.280Z,8.33
2019-03-28T01:27:06.195Z,8.07
2019-03-28T01:32:00.139Z,7.63
2019-03-28T01:36:54.029Z,7.53
2019-03-28T01:41:48.263Z,7.43
2019-03-28T01:46:42.210Z,7.60
2019-03-28T01:51:36.170Z,7.80
2019-03-28T01:56:30.130Z,8.03
2019-03-28T02:01:24.217Z,8.73
2019-03-28T02:06:18.212Z,7.80
2019-03-28T02:11:12.163Z,7.77
2019-03-28T02:16:06.232Z,7.63
2019-03-28T02:21:00.332Z,7.93
2019-03-28T02:25:54.228Z,7.13
2019-03-28T02:30:48.211Z,7.33
2019-03-28T02:35:42.330Z,8.30
2019-03-28T02:40:36.501Z,8.43
2019-03-28T02:45:30.462Z,7.17
2019-03-28T02:50:24.519Z,7.47
2019-03-28T02:55:18.580Z,7.90
2019-03-28T03:00:12.510Z,7.07
2019-03-28T03:05:07.034Z,7.10
2019-03-28T03:10:01.075Z,6.80
2019-03-28T03:14:55.031Z,7.33
2019-03-28T03:19:49.004Z,7.63
2019-03-28T03:24:43.058Z,7.97
2019-03-28T03:29:37.048Z,8.03
2019-03-28T03:34:32.760Z,7.80
2019-03-28T03:39:25.044Z,7.90
2019-03-28T03:44:19.345Z,6.80
2019-03-28T03:49:13.316Z,7.80
2019-03-28T03:54:07.276Z,7.00
2019-03-28T03:59:01.340Z,6.47
2019-03-28T04:03:55.899Z,7.23
2019-03-28T04:08:49.621Z,6.97
2019-03-28T04:13:43.600Z,7.67
2019-03-28T04:18:37.971Z,7.83
2019-03-28T04:23:32.002Z,7.97
2019-03-28T04:28:32.299Z,7.53
2019-03-28T04:33:20.125Z,7.80
2019-03-28T04:38:14.175Z,8.13
2019-03-28T04:43:08.197Z,7.73
2019-03-28T04:48:02.159Z,6.67
2019-03-28T04:52:56.117Z,6.73
2019-03-28T04:57:50.145Z,6.50
2019-03-28T05:02:46.003Z,6.40
2019-03-28T05:07:38.485Z,6.50
2019-03-28T05:12:32.477Z,5.43
2019-03-28T05:17:26.694Z,5.53
2019-03-28T05:22:20.674Z,5.70
2019-03-28T05:27:16.596Z,4.83
2019-03-28T05:32:08.733Z,6.17
2019-03-28T05:37:02.692Z,5.77
2019-03-28T05:41:56.697Z,4.93
2019-03-28T05:46:50.656Z,5.63
2019-03-28T05:51:44.724Z,6.13
2019-03-28T05:56:38.680Z,5.30
2019-03-28T06:01:32.690Z,4.83
2019-03-28T06:06:26.676Z,5.20
2019-03-28T06:11:20.699Z,6.30
2019-03-28T06:16:14.680Z,4.53
2019-03-28T06:21:08.648Z,5.60
2019-03-28T06:26:02.660Z,4.50
2019-03-28T06:30:56.649Z,5.03
2019-03-28T06:35:50.604Z,4.40
2019-03-28T06:40:44.943Z,4.77
2019-03-28T06:45:38.910Z,3.43
2019-03-28T06:50:32.940Z,3.77
2019-03-28T06:55:26.928Z,3.73
2019-03-28T07:00:20.931Z,3.77
2019-03-28T07:05:14.892Z,3.53
2019-03-28T07:10:08.895Z,3.80
2019-03-28T07:15:02.848Z,3.37
2019-03-28T07:19:56.874Z,3.70
2019-03-28T07:24:50.835Z,3.33
2019-03-28T07:29:50.891Z,3.73
2019-03-28T07:34:39.210Z,3.80
2019-03-28T07:39:33.179Z,3.20
2019-03-28T07:44:27.150Z,4.07
2019-03-28T07:49:21.163Z,4.17
2019-03-28T07:54:15.123Z,3.97
2019-03-28T07:59:09.145Z,4.07
2019-03-28T08:04:03.133Z,4.67
2019-03-28T08:08:57.141Z,4.33
2019-03-28T08:13:51.082Z,4.27
2019-03-28T08:18:45.475Z,3.63
2019-03-28T08:23:39.139Z,3.90
2019-03-28T08:28:33.120Z,3.67
2019-03-28T08:33:27.107Z,3.30
2019-03-28T08:38:21.037Z,3.33
2019-03-28T08:43:15.111Z,3.37
2019-03-28T08:48:09.099Z,3.97
2019-03-28T08:53:03.048Z,3.43
2019-03-28T08:57:57.086Z,3.20
2019-03-28T09:02:51.049Z,3.33
2019-03-28T09:07:45.050Z,3.23
2019-03-28T09:12:38.965Z,3.30
2019-03-28T09:17:33.054Z,3.20
2019-03-28T09:22:27.391Z,3.03
2019-03-28T09:27:21.352Z,2.83
2019-03-28T09:32:15.333Z,2.87
2019-03-28T09:37:09.321Z,2.87
2019-03-28T09:42:03.956Z,3.00
2019-03-28T09:46:57.939Z,3.10
2019-03-28T09:51:51.915Z,2.93
2019-03-28T09:56:45.906Z,2.93
2019-03-28T10:01:39.930Z,2.63
2019-03-28T10:06:33.874Z,2.70
2019-03-28T10:11:27.900Z,3.10
2019-03-28T10:16:21.860Z,3.70
2019-03-28T10:21:15.879Z,3.70
2019-03-28T10:26:09.832Z,3.57
2019-03-28T10:31:15.788Z,3.53
2019-03-28T10:35:58.135Z,4.20
2019-03-28T10:40:52.070Z,3.67
2019-03-28T10:45:46.209Z,3.90
2019-03-28T10:50:43.909Z,3.73
2019-03-28T10:55:34.399Z,3.60
2019-03-28T11:00:28.519Z,3.00
2019-03-28T11:05:22.751Z,3.60
2019-03-28T11:10:16.760Z,3.15
2019-03-28T11:15:10.730Z,3.23
2019-03-28T11:20:04.928Z,4.30
2019-03-28T11:24:59.034Z,4.60
2019-03-28T11:29:53.023Z,3.50
2019-03-28T11:34:46.965Z,4.10
2019-03-28T11:39:41.009Z,3.83
2019-03-28T11:44:34.933Z,3.37
2019-03-28T11:49:33.937Z,3.57
2019-03-28T11:54:27.922Z,3.57
2019-03-28T11:59:21.909Z,3.50
2019-03-28T12:04:15.956Z,3.63
2019-03-28T12:09:10.226Z,3.77
2019-03-28T12:14:04.217Z,3.40
2019-03-28T12:18:58.863Z,3.60
2019-03-28T12:23:52.852Z,3.60
2019-03-28T12:28:47.184Z,3.33
2019-03-28T12:33:41.145Z,3.70
2019-03-28T12:38:35.421Z,3.27
2019-03-28T12:43:29.427Z,3.23
2019-03-28T12:48:23.688Z,3.60
2019-03-28T12:53:17.851Z,4.00
2019-03-28T12:58:12.023Z,4.23
2019-03-28T13:03:06.306Z,3.53
2019-03-28T13:08:00.599Z,2.90
2019-03-28T13:12:54.969Z,2.87
2019-03-28T13:17:48.871Z,3.10
2019-03-28T13:22:42.866Z,2.67
2019-03-28T13:27:37.092Z,2.50
2019-03-28T13:32:41.079Z,2.97
2019-03-28T13:37:24.806Z,2.83
2019-03-28T13:42:18.829Z,3.00
2019-03-28T13:47:12.812Z,2.27
2019-03-28T13:52:07.166Z,2.30
2019-03-28T13:57:01.090Z,2.30
2019-03-28T14:01:55.123Z,2.70
2019-03-28T14:06:49.113Z,2.70
2019-03-28T14:11:43.118Z,2.17
2019-03-28T14:16:37.015Z,2.37
2019-03-28T14:21:31.070Z,2.47
2019-03-28T14:26:24.973Z,2.63
2019-03-28T14:31:19.077Z,2.70
2019-03-28T14:36:13.025Z,2.53
2019-03-28T14:41:07.019Z,2.30
2019-03-28T14:46:00.934Z,2.33
2019-03-28T14:50:55.120Z,2.43
2019-03-28T14:55:48.989Z,2.37
2019-03-28T15:00:47.260Z,2.60
2019-03-28T15:05:40.547Z,2.53
2019-03-28T15:10:34.676Z,2.27
2019-03-28T15:15:28.603Z,2.17
2019-03-28T15:20:22.672Z,2.40
2019-03-28T15:25:16.589Z,2.37
2019-03-28T15:30:10.665Z,2.13
2019-03-28T15:35:04.899Z,2.40
2019-03-28T15:39:58.979Z,1.67
2019-03-28T15:44:52.962Z,1.73
2019-03-28T15:49:46.986Z,2.17
2019-03-28T15:54:41.636Z,2.20
2019-03-28T15:59:35.250Z,2.27
2019-03-28T16:04:29.227Z,2.10
2019-03-28T16:09:23.222Z,1.80
2019-03-28T16:14:17.172Z,2.17
2019-03-28T16:19:11.218Z,2.60
2019-03-28T16:24:05.237Z,1.70
2019-03-28T16:28:59.196Z,2.70
2019-03-28T16:34:05.830Z,1.90
2019-03-28T16:38:47.179Z,1.93
2019-03-28T16:43:41.191Z,1.93
2019-03-28T16:48:35.114Z,2.00
2019-03-28T16:53:29.178Z,2.00
2019-03-28T16:58:23.211Z,1.90
2019-03-28T17:03:17.129Z,2.20
2019-03-28T17:08:11.148Z,2.70
2019-03-28T17:13:05.061Z,2.70
2019-03-28T17:17:59.139Z,2.50
2019-03-28T17:22:53.034Z,2.73
2019-03-28T17:27:46.937Z,2.60
2019-03-28T17:32:41.134Z,2.97
2019-03-28T17:37:35.108Z,2.90
2019-03-28T17:42:29.052Z,3.27
2019-03-28T17:47:23.123Z,3.47
2019-03-28T17:52:17.074Z,3.00
2019-03-28T17:57:11.135Z,3.50
2019-03-28T18:02:05.408Z,3.60
2019-03-28T18:06:59.487Z,3.80
2019-03-28T18:11:53.352Z,3.43
2019-03-28T18:16:47.355Z,3.30
2019-03-28T18:21:41.361Z,4.07
2019-03-28T18:26:35.357Z,3.50
2019-03-28T18:31:29.314Z,3.33
2019-03-28T18:36:23.263Z,3.47
2019-03-28T18:41:17.255Z,3.37
2019-03-28T18:46:14.572Z,3.90
2019-03-28T18:51:05.338Z,4.03
2019-03-28T18:55:59.311Z,4.03
2019-03-28T19:00:53.466Z,4.10
2019-03-28T19:05:47.421Z,3.77
2019-03-28T19:10:41.597Z,3.50
2019-03-28T19:15:35.610Z,3.70
2019-03-28T19:20:32.905Z,4.10
2019-03-28T19:25:23.551Z,3.80
2019-03-28T19:30:17.904Z,4.63
2019-03-28T19:35:11.934Z,4.40
2019-03-28T19:40:07.025Z,4.10
2019-03-28T19:45:00.373Z,3.93
2019-03-28T19:49:54.246Z,4.27
2019-03-28T19:54:48.254Z,5.13
2019-03-28T19:59:42.457Z,5.17
2019-03-28T20:04:36.388Z,5.50
2019-03-28T20:09:30.414Z,5.50
2019-03-28T20:14:24.468Z,5.30
2019-03-28T20:19:18.424Z,6.00
2019-03-28T20:24:12.421Z,5.67
2019-03-28T20:29:06.463Z,5.30
2019-03-28T20:34:00.425Z,5.73
2019-03-28T20:39:03.874Z,6.07
2019-03-28T20:43:48.731Z,6.43
2019-03-28T20:48:43.103Z,5.30
2019-03-28T20:53:37.212Z,5.27
2019-03-28T20:58:31.051Z,4.70
2019-03-28T21:03:25.173Z,4.83
2019-03-28T21:08:19.335Z,4.77
2019-03-28T21:13:13.277Z,4.47
2019-03-28T21:18:07.322Z,4.33
2019-03-28T21:23:04.936Z,4.60
2019-03-28T21:27:55.630Z,4.50
2019-03-28T21:32:55.833Z,4.10
2019-03-28T21:37:43.834Z,4.33
2019-03-28T21:42:38.704Z,4.50
2019-03-28T21:47:31.728Z,4.37
2019-03-28T21:52:25.821Z,4.37
2019-03-28T21:57:19.828Z,3.83
2019-03-28T22:02:13.819Z,3.47
2019-03-28T22:07:07.787Z,3.50
2019-03-28T22:12:02.827Z,5.23
2019-03-28T22:16:55.807Z,6.30
2019-03-28T22:21:49.786Z,6.63
2019-03-28T22:26:46.067Z,5.97
2019-03-28T22:31:38.149Z,6.90
2019-03-28T22:36:32.089Z,6.50
2019-03-28T22:41:26.092Z,7.23
2019-03-28T22:46:20.073Z,7.30
2019-03-28T22:51:14.059Z,8.70
2019-03-28T22:56:07.981Z,8.30
2019-03-28T23:01:02.062Z,4.77
2019-03-28T23:05:57.099Z,4.53
2019-03-28T23:10:51.264Z,4.80
2019-03-28T23:15:45.330Z,4.60
2019-03-28T23:20:39.231Z,3.70
2019-03-28T23:25:33.235Z,3.40
2019-03-28T23:30:27.139Z,3.03
2019-03-28T23:35:21.033Z,2.80
2019-03-28T23:40:15.208Z,3.67
2019-03-28T23:45:10.714Z,2.97
2019-03-28T23:50:04.851Z,3.43
2019-03-28T23:54:59.060Z,3.70
2019-03-28T23:59:53.044Z,3.40
